createdAt,value
2022-07-30T00:01:17.882Z,100726.62
2022-07-30T00:03:45.433Z,100727.69
2022-07-30T00:06:12.208Z,100729.00
2022-07-30T00:08:38.931Z,100725.37
2022-07-30T00:11:05.976Z,100730.22
2022-07-30T00:13:32.651Z,100720.31
2022-07-30T00:15:59.337Z,100729.28
2022-07-30T00:18:26.291Z,100706.00
2022-07-30T00:20:52.928Z,100719.69
2022-07-30T00:23:19.610Z,100710.06
2022-07-30T00:25:46.559Z,100711.69
2022-07-30T00:28:13.208Z,100708.66
2022-07-30T00:30:40.744Z,100701.03
2022-07-30T00:33:08.139Z,100709.19
2022-07-30T00:35:35.352Z,100703.19
2022-07-30T00:38:02.120Z,100706.72
2022-07-30T00:40:29.158Z,100705.06
2022-07-30T00:42:56.166Z,100703.94
2022-07-30T00:45:23.251Z,100707.22
2022-07-30T00:47:50.631Z,100704.19
2022-07-30T00:50:17.336Z,100700.31
2022-07-30T00:52:44.670Z,100687.66
2022-07-30T00:55:14.664Z,100701.81
2022-07-30T00:57:42.800Z,100694.09
2022-07-30T01:00:12.415Z,100704.69
2022-07-30T01:02:39.985Z,100704.13
2022-07-30T01:05:07.568Z,100703.22
2022-07-30T01:07:34.526Z,100699.34
2022-07-30T01:10:02.004Z,100687.87
2022-07-30T01:12:29.206Z,100686.72
2022-07-30T01:14:58.238Z,100699.53
2022-07-30T01:17:25.673Z,100693.56
2022-07-30T01:19:56.018Z,100679.03
2022-07-30T01:22:29.000Z,100680.84
2022-07-30T01:25:03.792Z,100674.87
2022-07-30T01:27:36.459Z,100677.81
2022-07-30T01:30:06.117Z,100690.41
2022-07-30T01:32:36.553Z,100686.59
2022-07-30T01:35:06.392Z,100690.97
2022-07-30T01:37:34.708Z,100687.19
2022-07-30T01:40:02.768Z,100686.12
2022-07-30T01:42:30.440Z,100678.81
2022-07-30T01:44:58.507Z,100671.47
2022-07-30T01:47:27.372Z,100677.53
2022-07-30T01:49:55.792Z,100658.66
2022-07-30T01:52:25.638Z,100668.75
2022-07-30T01:54:56.600Z,100685.66
2022-07-30T01:57:25.893Z,100675.06
2022-07-30T01:59:57.855Z,100670.56
2022-07-30T02:02:26.118Z,100679.62
2022-07-30T02:04:53.555Z,100658.66
2022-07-30T02:07:27.583Z,100668.53
2022-07-30T02:10:11.364Z,100667.72
2022-07-30T02:12:52.376Z,100660.63
2022-07-30T02:15:31.906Z,100664.28
2022-07-30T02:18:16.864Z,100671.25
2022-07-30T02:20:51.464Z,100680.78
2022-07-30T02:23:21.587Z,100671.47
2022-07-30T02:25:52.171Z,100676.00
2022-07-30T02:28:23.194Z,100676.84
2022-07-30T02:31:01.121Z,100678.13
2022-07-30T02:33:48.620Z,100675.91
2022-07-30T02:36:18.806Z,100676.66
2022-07-30T02:38:47.556Z,100689.22
2022-07-30T02:41:15.389Z,100675.00
2022-07-30T02:43:43.067Z,100689.22
2022-07-30T02:46:13.000Z,100686.53
2022-07-30T02:48:43.117Z,100693.59
2022-07-30T02:51:11.805Z,100694.41
2022-07-30T02:53:40.441Z,100688.19
2022-07-30T02:56:08.064Z,100689.22
2022-07-30T02:58:37.891Z,100688.41
2022-07-30T03:01:05.557Z,100685.38
2022-07-30T03:03:32.938Z,100696.06
2022-07-30T03:06:02.367Z,100697.69
2022-07-30T03:08:32.916Z,100697.69
2022-07-30T03:11:00.831Z,100687.34
2022-07-30T03:13:27.818Z,100692.84
2022-07-30T03:15:58.315Z,100690.97
2022-07-30T03:18:32.975Z,100685.47
2022-07-30T03:21:01.312Z,100699.69
2022-07-30T03:23:33.263Z,100694.41
2022-07-30T03:26:02.665Z,100700.75
2022-07-30T03:28:33.040Z,100696.75
2022-07-30T03:31:00.339Z,100697.78
2022-07-30T03:33:38.330Z,100678.59
2022-07-30T03:36:08.333Z,100695.41
2022-07-30T03:38:39.409Z,100690.59
2022-07-30T03:41:08.336Z,100690.34
2022-07-30T03:43:36.067Z,100695.50
2022-07-30T03:46:05.332Z,100688.19
2022-07-30T03:48:34.784Z,100690.66
2022-07-30T03:51:04.119Z,100681.37
2022-07-30T03:53:32.460Z,100670.00
2022-07-30T03:56:03.830Z,100686.19
2022-07-30T03:58:36.158Z,100675.09
2022-07-30T04:01:05.302Z,100675.69
2022-07-30T04:03:33.569Z,100678.78
2022-07-30T04:06:01.351Z,100689.97
2022-07-30T04:08:29.060Z,100682.38
2022-07-30T04:10:56.525Z,100685.66
2022-07-30T04:13:24.700Z,100688.37
2022-07-30T04:16:37.622Z,100682.22
2022-07-30T04:18:50.382Z,100689.62
2022-07-30T04:21:20.701Z,100682.28
2022-07-30T04:24:03.872Z,100689.09
2022-07-30T04:26:35.682Z,100690.19
2022-07-30T04:29:09.331Z,100699.47
2022-07-30T04:31:41.512Z,100696.75
2022-07-30T04:34:17.751Z,100674.13
2022-07-30T04:36:44.659Z,100681.53
2022-07-30T04:39:12.700Z,100674.44
2022-07-30T04:41:49.071Z,100683.19
2022-07-30T04:44:19.917Z,100682.09
2022-07-30T04:46:47.954Z,100678.56
2022-07-30T04:49:17.761Z,100675.59
2022-07-30T04:51:45.762Z,100679.19
2022-07-30T04:54:15.416Z,100682.22
2022-07-30T04:57:00.981Z,100684.44
2022-07-30T04:59:28.519Z,100680.91
2022-07-30T05:01:58.775Z,100670.31
2022-07-30T05:04:27.943Z,100684.25
2022-07-30T05:06:56.768Z,100669.94
2022-07-30T05:09:24.107Z,100673.31
2022-07-30T05:11:52.623Z,100673.66
2022-07-30T05:14:20.744Z,100677.87
2022-07-30T05:16:47.444Z,100680.19
2022-07-30T05:19:14.217Z,100677.34
2022-07-30T05:21:41.301Z,100688.53
2022-07-30T05:24:08.507Z,100684.25
2022-07-30T05:26:35.930Z,100679.09
2022-07-30T05:29:04.090Z,100697.75
2022-07-30T05:31:35.740Z,100697.28
2022-07-30T05:34:06.106Z,100688.00
2022-07-30T05:36:33.788Z,100703.56
2022-07-30T05:39:01.052Z,100704.44
2022-07-30T05:41:32.183Z,100702.31
2022-07-30T05:44:01.092Z,100701.81
2022-07-30T05:46:28.856Z,100714.72
2022-07-30T05:48:56.051Z,100703.31
2022-07-30T05:51:24.038Z,100708.09
2022-07-30T05:53:52.024Z,100705.22
2022-07-30T05:56:23.389Z,100701.50
2022-07-30T05:58:50.788Z,100709.41
2022-07-30T06:01:18.961Z,100706.41
2022-07-30T06:03:46.029Z,100700.41
2022-07-30T06:06:14.271Z,100703.88
2022-07-30T06:08:41.008Z,100700.31
2022-07-30T06:11:10.678Z,100699.22
2022-07-30T06:13:39.121Z,100698.91
2022-07-30T06:16:06.479Z,100693.12
2022-07-30T06:18:34.817Z,100700.47
2022-07-30T06:23:29.540Z,100694.81
2022-07-30T06:25:58.892Z,100690.25
2022-07-30T06:28:37.726Z,100689.53
2022-07-30T06:31:07.378Z,100695.28
2022-07-30T06:33:34.282Z,100693.12
2022-07-30T06:36:01.250Z,100692.56
2022-07-30T06:38:28.916Z,100695.81
2022-07-30T06:41:02.004Z,100696.09
2022-07-30T06:43:31.927Z,100696.12
2022-07-30T06:46:03.076Z,100683.34
2022-07-30T06:48:31.521Z,100698.41
2022-07-30T06:51:01.537Z,100692.97
2022-07-30T06:53:28.870Z,100690.28
2022-07-30T06:56:00.679Z,100693.28
2022-07-30T06:58:29.609Z,100689.72
2022-07-30T07:00:57.796Z,100696.28
2022-07-30T07:03:26.305Z,100694.41
2022-07-30T07:06:07.057Z,100694.66
2022-07-30T07:08:36.524Z,100697.38
2022-07-30T07:11:04.313Z,100690.25
2022-07-30T07:13:31.945Z,100689.72
2022-07-30T07:15:59.108Z,100681.53
2022-07-30T07:18:26.488Z,100682.56
2022-07-30T07:20:53.983Z,100677.66
2022-07-30T07:23:20.895Z,100681.25
2022-07-30T07:25:48.315Z,100680.72
2022-07-30T07:28:16.252Z,100666.00
2022-07-30T07:30:44.165Z,100671.75
2022-07-30T07:33:12.262Z,100671.72
2022-07-30T07:35:49.006Z,100662.19
2022-07-30T07:38:20.689Z,100665.19
2022-07-30T07:40:48.517Z,100666.56
2022-07-30T07:43:16.002Z,100674.47
2022-07-30T07:45:43.469Z,100668.22
2022-07-30T07:48:12.594Z,100662.72
2022-07-30T07:50:41.116Z,100660.00
2022-07-30T07:53:09.680Z,100661.88
2022-07-30T07:55:36.816Z,100666.78
2022-07-30T07:58:04.212Z,100656.69
2022-07-30T08:00:34.932Z,100664.84
2022-07-30T08:03:02.261Z,100661.28
2022-07-30T08:06:01.140Z,100657.19
2022-07-30T08:08:17.770Z,100651.97
2022-07-30T08:10:50.582Z,100649.22
2022-07-30T08:13:48.954Z,100645.38
2022-07-30T08:16:26.775Z,100649.69
2022-07-30T08:18:57.362Z,100639.00
2022-07-30T08:21:25.851Z,100646.28
2022-07-30T08:23:52.757Z,100633.16
2022-07-30T08:26:19.813Z,100627.13
2022-07-30T08:28:46.569Z,100640.53
2022-07-30T08:31:13.581Z,100640.81
2022-07-30T08:33:40.686Z,100632.34
2022-07-30T08:36:09.413Z,100619.19
2022-07-30T08:38:37.204Z,100628.75
2022-07-30T08:41:04.738Z,100612.94
2022-07-30T08:43:31.848Z,100619.41
2022-07-30T08:46:01.404Z,100616.63
2022-07-30T08:48:29.654Z,100620.72
2022-07-30T08:50:56.951Z,100615.47
2022-07-30T08:53:27.478Z,100608.09
2022-07-30T08:55:58.567Z,100611.25
2022-07-30T08:58:31.457Z,100597.50
2022-07-30T09:00:58.545Z,100595.75
2022-07-30T09:03:28.393Z,100582.87
2022-07-30T09:05:56.843Z,100597.56
2022-07-30T09:08:23.778Z,100595.31
2022-07-30T09:10:53.367Z,100587.62
2022-07-30T09:13:29.464Z,100598.19
2022-07-30T09:15:58.189Z,100590.53
2022-07-30T09:18:28.571Z,100591.91
2022-07-30T09:20:56.113Z,100592.16
2022-07-30T09:23:23.963Z,100591.34
2022-07-30T09:25:54.344Z,100584.69
2022-07-30T09:28:35.881Z,100572.66
2022-07-30T09:31:12.819Z,100580.00
2022-07-30T09:33:47.355Z,100572.56
2022-07-30T09:36:18.032Z,100574.53
2022-07-30T09:38:51.671Z,100585.91
2022-07-30T09:41:39.296Z,100587.22
2022-07-30T09:44:07.600Z,100590.56
2022-07-30T09:47:02.873Z,100581.06
2022-07-30T09:49:30.526Z,100584.78
2022-07-30T09:54:52.729Z,100573.31
2022-07-30T09:57:25.946Z,100583.47
2022-07-30T10:00:15.378Z,100584.75
2022-07-30T10:02:42.103Z,100584.16
2022-07-30T10:05:21.538Z,100585.50
2022-07-30T10:07:54.039Z,100589.81
2022-07-30T10:10:25.500Z,100592.53
2022-07-30T10:13:01.233Z,100595.53
2022-07-30T10:15:34.944Z,100589.87
2022-07-30T10:18:06.413Z,100582.69
2022-07-30T10:20:40.889Z,100582.91
2022-07-30T10:23:15.871Z,100575.81
2022-07-30T10:25:59.096Z,100568.09
2022-07-30T10:28:35.787Z,100581.84
2022-07-30T10:31:08.402Z,100569.37
2022-07-30T10:33:53.035Z,100578.12
2022-07-30T10:36:23.340Z,100580.44
2022-07-30T10:38:54.196Z,100577.56
2022-07-30T10:41:42.709Z,100570.91
2022-07-30T10:44:24.391Z,100568.78
2022-07-30T10:47:07.065Z,100574.31
2022-07-30T10:49:41.461Z,100575.44
2022-07-30T10:52:12.116Z,100573.22
2022-07-30T10:54:45.626Z,100578.19
2022-07-30T10:57:14.900Z,100575.50
2022-07-30T10:59:52.464Z,100567.13
2022-07-30T11:02:21.099Z,100571.00
2022-07-30T11:04:49.664Z,100558.59
2022-07-30T11:07:25.465Z,100552.81
2022-07-30T11:10:05.094Z,100563.50
2022-07-30T11:12:41.566Z,100562.19
2022-07-30T11:15:19.118Z,100544.19
2022-07-30T11:18:12.118Z,100550.62
2022-07-30T11:20:41.050Z,100546.00
2022-07-30T11:23:14.007Z,100538.41
2022-07-30T11:25:51.084Z,100527.25
2022-07-30T11:28:42.538Z,100531.41
2022-07-30T11:31:56.466Z,100546.16
2022-07-30T11:34:24.146Z,100543.09
2022-07-30T11:37:02.166Z,100543.62
2022-07-30T11:39:57.942Z,100546.38
2022-07-30T11:42:30.026Z,100535.63
2022-07-30T11:45:18.538Z,100537.06
2022-07-30T11:47:47.668Z,100531.97
2022-07-30T11:50:29.393Z,100529.63
2022-07-30T11:52:59.876Z,100537.97
2022-07-30T11:55:36.479Z,100527.78
2022-07-30T11:58:06.548Z,100535.94
2022-07-30T12:00:39.845Z,100526.19
2022-07-30T12:03:12.593Z,100514.00
2022-07-30T12:05:40.490Z,100504.44
2022-07-30T12:08:08.315Z,100509.00
2022-07-30T12:10:44.409Z,100499.38
2022-07-30T12:13:16.339Z,100501.50
2022-07-30T12:15:45.315Z,100503.44
2022-07-30T12:18:28.977Z,100503.22
2022-07-30T12:21:01.340Z,100503.62
2022-07-30T12:23:30.219Z,100499.56
2022-07-30T12:25:58.166Z,100498.75
2022-07-30T12:28:27.872Z,100490.53
2022-07-30T12:30:56.122Z,100487.28
2022-07-30T12:33:23.758Z,100488.09
2022-07-30T12:35:51.589Z,100475.47
2022-07-30T12:38:20.251Z,100482.09
2022-07-30T12:41:13.444Z,100475.78
2022-07-30T12:43:55.803Z,100472.13
2022-07-30T12:46:23.760Z,100474.47
2022-07-30T12:48:51.501Z,100459.81
2022-07-30T12:51:18.411Z,100464.28
2022-07-30T12:53:45.948Z,100466.22
2022-07-30T12:56:15.557Z,100457.97
2022-07-30T12:58:42.283Z,100454.31
2022-07-30T13:01:13.233Z,100449.34
2022-07-30T13:03:40.901Z,100446.50
2022-07-30T13:06:14.919Z,100444.59
2022-07-30T13:08:44.979Z,100450.37
2022-07-30T13:11:12.279Z,100445.47
2022-07-30T13:13:39.147Z,100439.00
2022-07-30T13:16:07.276Z,100439.78
2022-07-30T13:18:35.930Z,100442.22
2022-07-30T13:21:04.965Z,100444.97
2022-07-30T13:23:32.270Z,100433.37
2022-07-30T13:25:59.216Z,100433.63
2022-07-30T13:28:26.757Z,100426.38
2022-07-30T13:30:53.864Z,100433.19
2022-07-30T13:33:20.515Z,100417.66
2022-07-30T13:35:47.199Z,100424.47
2022-07-30T13:38:15.553Z,100421.72
2022-07-30T13:40:42.326Z,100421.72
2022-07-30T13:43:08.963Z,100399.84
2022-07-30T13:45:36.714Z,100397.63
2022-07-30T13:48:04.281Z,100411.25
2022-07-30T13:50:31.003Z,100407.06
2022-07-30T13:53:01.948Z,100394.03
2022-07-30T13:55:29.006Z,100385.63
2022-07-30T13:57:56.031Z,100383.88
2022-07-30T14:00:23.211Z,100393.81
2022-07-30T14:02:50.901Z,100378.38
2022-07-30T14:05:18.210Z,100388.53
2022-07-30T14:07:45.014Z,100377.34
2022-07-30T14:10:11.997Z,100375.75
2022-07-30T14:12:40.075Z,100375.53
2022-07-30T14:15:07.441Z,100364.75
2022-07-30T14:17:34.435Z,100371.59
2022-07-30T14:20:01.157Z,100363.34
2022-07-30T14:22:28.003Z,100359.88
2022-07-30T14:24:55.025Z,100362.25
2022-07-30T14:27:21.793Z,100352.37
2022-07-30T14:29:48.702Z,100351.97
2022-07-30T14:32:15.796Z,100360.72
2022-07-30T14:34:49.192Z,100349.53
2022-07-30T14:37:16.858Z,100346.47
2022-07-30T14:39:43.878Z,100341.50
2022-07-30T14:42:11.291Z,100341.81
2022-07-30T14:44:38.311Z,100341.81
2022-07-30T14:47:05.417Z,100333.28
2022-07-30T14:49:32.365Z,100328.59
2022-07-30T14:51:59.494Z,100331.66
2022-07-30T14:54:27.933Z,100326.78
2022-07-30T14:56:58.175Z,100323.72
2022-07-30T14:59:27.600Z,100328.09
2022-07-30T15:01:55.631Z,100316.59
2022-07-30T15:04:23.435Z,100319.25
2022-07-30T15:06:50.545Z,100320.06
2022-07-30T15:09:17.921Z,100318.94
2022-07-30T15:12:08.258Z,100312.75
2022-07-30T15:14:31.621Z,100321.47
2022-07-30T15:17:03.478Z,100318.22
2022-07-30T15:19:31.101Z,100319.66
2022-07-30T15:21:59.127Z,100314.69
2022-07-30T15:24:26.292Z,100314.87
2022-07-30T15:26:55.836Z,100319.25
2022-07-30T15:29:24.146Z,100317.75
2022-07-30T15:31:51.554Z,100316.72
2022-07-30T15:34:18.705Z,100310.34
2022-07-30T15:36:45.617Z,100327.31
2022-07-30T15:39:13.422Z,100317.12
2022-07-30T15:41:42.547Z,100314.69
2022-07-30T15:44:09.277Z,100314.00
2022-07-30T15:46:36.221Z,100300.50
2022-07-30T15:49:03.363Z,100308.13
2022-07-30T15:51:32.111Z,100304.87
2022-07-30T15:53:58.834Z,100316.41
2022-07-30T15:56:27.085Z,100303.84
2022-07-30T15:58:53.867Z,100309.62
2022-07-30T16:01:20.760Z,100314.59
2022-07-30T16:03:47.799Z,100299.47
2022-07-30T16:06:14.726Z,100314.22
2022-07-30T16:08:41.472Z,100314.50
2022-07-30T16:11:11.021Z,100307.81
2022-07-30T16:13:37.911Z,100310.56
2022-07-30T16:16:04.971Z,100316.91
2022-07-30T16:18:31.931Z,100327.19
2022-07-30T16:21:01.085Z,100315.50
2022-07-30T16:23:28.426Z,100322.50
2022-07-30T16:26:03.705Z,100325.03
2022-07-30T16:28:30.479Z,100303.94
2022-07-30T16:30:57.277Z,100321.44
2022-07-30T16:33:24.347Z,100331.38
2022-07-30T16:35:51.481Z,100326.00
2022-07-30T16:38:23.112Z,100328.09
2022-07-30T16:40:50.308Z,100339.25
2022-07-30T16:43:19.663Z,100340.97
2022-07-30T16:45:47.223Z,100335.28
2022-07-30T16:48:14.313Z,100337.81
2022-07-30T16:50:41.775Z,100341.13
2022-07-30T16:53:13.299Z,100336.34
2022-07-30T16:55:41.244Z,100347.00
2022-07-30T16:58:07.908Z,100350.62
2022-07-30T17:00:34.735Z,100336.28
2022-07-30T17:03:01.740Z,100345.84
2022-07-30T17:05:28.508Z,100337.69
2022-07-30T17:07:55.440Z,100341.03
2022-07-30T17:10:25.551Z,100348.19
2022-07-30T17:12:52.946Z,100343.28
2022-07-30T17:15:19.880Z,100342.88
2022-07-30T17:17:47.375Z,100342.03
2022-07-30T17:20:16.345Z,100343.22
2022-07-30T17:22:43.319Z,100345.22
2022-07-30T17:25:10.550Z,100342.56
2022-07-30T17:27:37.445Z,100347.28
2022-07-30T17:30:05.247Z,100349.25
2022-07-30T17:32:32.251Z,100358.34
2022-07-30T17:34:58.927Z,100341.22
2022-07-30T17:37:25.705Z,100344.53
2022-07-30T17:40:19.818Z,100352.78
2022-07-30T17:42:43.813Z,100337.03
2022-07-30T17:45:11.520Z,100345.53
2022-07-30T17:47:38.461Z,100350.44
2022-07-30T17:50:06.784Z,100348.87
2022-07-30T17:52:34.936Z,100354.34
2022-07-30T17:55:02.007Z,100354.12
2022-07-30T17:57:28.888Z,100350.62
2022-07-30T17:59:55.889Z,100351.78
2022-07-30T18:02:27.401Z,100359.47
2022-07-30T18:04:56.604Z,100371.28
2022-07-30T18:07:23.425Z,100369.69
2022-07-30T18:09:50.114Z,100367.00
2022-07-30T18:12:17.221Z,100364.91
2022-07-30T18:14:44.162Z,100370.91
2022-07-30T18:17:14.299Z,100379.69
2022-07-30T18:19:41.665Z,100386.81
2022-07-30T18:22:09.213Z,100386.03
2022-07-30T18:24:40.258Z,100386.91
2022-07-30T18:27:08.134Z,100394.06
2022-07-30T18:29:34.848Z,100392.16
2022-07-30T18:32:01.892Z,100393.53
2022-07-30T18:34:29.108Z,100397.13
2022-07-30T18:36:55.837Z,100391.41
2022-07-30T18:39:22.768Z,100397.44
2022-07-30T18:41:49.711Z,100395.31
2022-07-30T18:44:16.990Z,100397.25
2022-07-30T18:46:43.689Z,100398.91
2022-07-30T18:49:35.044Z,100408.75
2022-07-30T18:52:02.934Z,100407.69
2022-07-30T18:54:30.226Z,100407.44
2022-07-30T18:56:56.896Z,100405.56
2022-07-30T18:59:23.733Z,100410.78
2022-07-30T19:01:50.897Z,100411.34
2022-07-30T19:04:17.663Z,100407.81
2022-07-30T19:06:44.683Z,100402.09
2022-07-30T19:09:16.666Z,100403.50
2022-07-30T19:11:45.837Z,100398.59
2022-07-30T19:14:14.235Z,100410.37
2022-07-30T19:16:43.208Z,100409.78
2022-07-30T19:19:12.899Z,100398.09
2022-07-30T19:21:40.768Z,100406.56
2022-07-30T19:24:08.546Z,100401.16
2022-07-30T19:26:39.321Z,100404.94
2022-07-30T19:29:07.924Z,100405.53
2022-07-30T19:31:35.408Z,100406.87
2022-07-30T19:34:02.213Z,100413.19
2022-07-30T19:36:30.216Z,100402.81
2022-07-30T19:39:06.778Z,100393.56
2022-07-30T19:41:40.452Z,100395.72
2022-07-30T19:44:12.050Z,100410.19
2022-07-30T19:46:39.333Z,100413.50
2022-07-30T19:49:08.207Z,100412.16
2022-07-30T19:52:10.006Z,100413.50
2022-07-30T19:54:22.458Z,100412.44
2022-07-30T19:56:49.162Z,100407.81
2022-07-30T19:59:16.197Z,100404.56
2022-07-30T20:01:44.135Z,100401.00
2022-07-30T20:04:14.813Z,100399.09
2022-07-30T20:06:46.191Z,100389.31
2022-07-30T20:09:14.569Z,100404.28
2022-07-30T20:11:43.720Z,100401.59
2022-07-30T20:14:10.471Z,100398.03
2022-07-30T20:16:37.658Z,100405.94
2022-07-30T20:19:05.533Z,100401.84
2022-07-30T20:22:07.266Z,100401.03
2022-07-30T20:24:20.971Z,100406.19
2022-07-30T20:26:47.788Z,100396.13
2022-07-30T20:29:19.251Z,100389.03
2022-07-30T20:31:46.822Z,100398.06
2022-07-30T20:34:18.080Z,100404.88
2022-07-30T20:36:44.994Z,100395.31
2022-07-30T20:39:13.405Z,100405.69
2022-07-30T20:41:45.030Z,100389.34
2022-07-30T20:44:23.122Z,100400.50
2022-07-30T20:46:52.545Z,100399.44
2022-07-30T20:49:23.801Z,100402.44
2022-07-30T20:51:55.530Z,100402.16
2022-07-30T20:54:22.769Z,100404.59
2022-07-30T20:56:51.125Z,100407.88
2022-07-30T20:59:18.499Z,100410.03
2022-07-30T21:01:50.944Z,100412.22
2022-07-30T21:04:23.963Z,100417.41
2022-07-30T21:06:53.321Z,100405.97
2022-07-30T21:09:20.231Z,100416.31
2022-07-30T21:11:50.369Z,100416.59
2022-07-30T21:14:19.981Z,100416.59
2022-07-30T21:16:47.170Z,100416.59
2022-07-30T21:19:16.473Z,100404.28
2022-07-30T21:21:48.333Z,100401.03
2022-07-30T21:24:19.389Z,100414.34
2022-07-30T21:26:48.887Z,100412.44
2022-07-30T21:29:16.548Z,100417.34
2022-07-30T21:32:01.320Z,100420.34
2022-07-30T21:34:36.052Z,100417.91
2022-07-30T21:37:09.018Z,100414.62
2022-07-30T21:39:40.028Z,100398.81
2022-07-30T21:42:08.682Z,100401.53
2022-07-30T21:44:36.420Z,100407.81
2022-07-30T21:47:05.627Z,100411.06
2022-07-30T21:49:37.294Z,100396.59
2022-07-30T21:52:04.947Z,100410.25
2022-07-30T21:54:45.255Z,100409.41
2022-07-30T21:57:26.384Z,100416.22
2022-07-30T21:59:57.913Z,100413.78
2022-07-30T22:02:25.204Z,100412.66
2022-07-30T22:04:53.701Z,100403.13
2022-07-30T22:07:21.814Z,100403.66
2022-07-30T22:09:48.743Z,100412.09
2022-07-30T22:15:02.772Z,100401.19
2022-07-30T22:17:37.284Z,100412.91
2022-07-30T22:20:17.790Z,100411.53
2022-07-30T22:22:46.381Z,100397.38
2022-07-30T22:25:13.665Z,100403.37
2022-07-30T22:27:56.802Z,100391.62
2022-07-30T22:30:26.901Z,100401.16
2022-07-30T22:32:55.261Z,100407.41
2022-07-30T22:38:09.767Z,100395.72
2022-07-30T22:40:39.685Z,100394.06
2022-07-30T22:43:12.813Z,100397.59
2022-07-30T22:45:47.201Z,100399.22
2022-07-30T22:48:16.496Z,100398.69
2022-07-30T22:50:43.446Z,100400.59
2022-07-30T22:53:23.291Z,100401.12
2022-07-30T22:55:59.328Z,100396.75
2022-07-30T22:58:26.877Z,100380.09
2022-07-30T23:00:53.995Z,100401.09
2022-07-30T23:03:21.220Z,100407.88
2022-07-30T23:05:55.197Z,100397.00
2022-07-30T23:08:30.115Z,100386.06
2022-07-30T23:10:59.642Z,100395.06
2022-07-30T23:12:31.101Z,100400.63
2022-07-30T23:12:32.790Z,100399.84
2022-07-30T23:13:28.258Z,100390.16
2022-07-30T23:15:54.883Z,100388.78
2022-07-30T23:18:21.552Z,100381.69
2022-07-30T23:20:48.573Z,100379.50
2022-07-30T23:23:15.213Z,100384.16
2022-07-30T23:25:41.865Z,100381.38
2022-07-30T23:28:08.900Z,100388.47
2022-07-30T23:30:35.645Z,100375.87
2022-07-30T23:33:02.268Z,100389.75
2022-07-30T23:35:29.275Z,100373.16
2022-07-30T23:37:55.889Z,100385.94
2022-07-30T23:40:23.401Z,100379.66
2022-07-30T23:42:51.012Z,100369.84
2022-07-30T23:45:18.202Z,100379.41
2022-07-30T23:48:01.737Z,100369.31
2022-07-30T23:50:32.232Z,100366.59
2022-07-30T23:52:59.617Z,100378.06
2022-07-30T23:55:27.216Z,100358.72
2022-07-30T23:57:54.454Z,100362.53
